sensor_id;sensor_type;location;lat;lon;timestamp;P1;durP1;ratioP1;P2;durP2;ratioP2
7917;SDS011;4004;42.624;23.386;2023-05-15T00:01:54;5.53;;;5.00;;
7917;SDS011;4004;42.624;23.386;2023-05-15T00:04:21;5.27;;;4.77;;
7917;SDS011;4004;42.624;23.386;2023-05-15T00:06:48;5.00;;;4.50;;
7917;SDS011;4004;42.624;23.386;2023-05-15T00:09:15;6.27;;;5.07;;
7917;SDS011;4004;42.624;23.386;2023-05-15T00:11:42;5.23;;;4.77;;
7917;SDS011;4004;42.624;23.386;2023-05-15T00:14:10;4.57;;;4.17;;
7917;SDS011;4004;42.624;23.386;2023-05-15T00:16:37;5.30;;;3.60;;
7917;SDS011;4004;42.624;23.386;2023-05-15T00:19:03;2.90;;;2.70;;
7917;SDS011;4004;42.624;23.386;2023-05-15T00:21:30;3.90;;;3.60;;
7917;SDS011;4004;42.624;23.386;2023-05-15T00:23:57;3.80;;;3.50;;
7917;SDS011;4004;42.624;23.386;2023-05-15T00:26:23;4.20;;;3.70;;
7917;SDS011;4004;42.624;23.386;2023-05-15T00:28:50;4.03;;;3.63;;
7917;SDS011;4004;42.624;23.386;2023-05-15T00:31:18;4.07;;;3.30;;
7917;SDS011;4004;42.624;23.386;2023-05-15T00:33:45;3.73;;;3.03;;
7917;SDS011;4004;42.624;23.386;2023-05-15T00:36:12;4.73;;;3.00;;
7917;SDS011;4004;42.624;23.386;2023-05-15T00:38:39;3.80;;;3.50;;
7917;SDS011;4004;42.624;23.386;2023-05-15T00:41:06;3.70;;;3.20;;
7917;SDS011;4004;42.624;23.386;2023-05-15T00:43:35;2.90;;;2.70;;
7917;SDS011;4004;42.624;23.386;2023-05-15T00:46:03;2.37;;;2.17;;
7917;SDS011;4004;42.624;23.386;2023-05-15T00:48:33;3.30;;;2.10;;
7917;SDS011;4004;42.624;23.386;2023-05-15T00:51:00;2.53;;;2.33;;
7917;SDS011;4004;42.624;23.386;2023-05-15T00:53:27;3.57;;;2.77;;
7917;SDS011;4004;42.624;23.386;2023-05-15T00:55:55;2.27;;;2.07;;
7917;SDS011;4004;42.624;23.386;2023-05-15T00:58:23;1.77;;;1.50;;
7917;SDS011;4004;42.624;23.386;2023-05-15T01:00:52;2.67;;;1.90;;
7917;SDS011;4004;42.624;23.386;2023-05-15T01:03:19;3.53;;;1.90;;
7917;SDS011;4004;42.624;23.386;2023-05-15T01:05:47;4.03;;;2.23;;
7917;SDS011;4004;42.624;23.386;2023-05-15T01:08:15;3.53;;;3.23;;
7917;SDS011;4004;42.624;23.386;2023-05-15T01:10:45;4.13;;;3.63;;
7917;SDS011;4004;42.624;23.386;2023-05-15T01:13:13;3.50;;;3.10;;
7917;SDS011;4004;42.624;23.386;2023-05-15T01:15:40;3.10;;;2.80;;
7917;SDS011;4004;42.624;23.386;2023-05-15T01:18:07;5.53;;;3.20;;
7917;SDS011;4004;42.624;23.386;2023-05-15T01:20:38;4.93;;;4.43;;
7917;SDS011;4004;42.624;23.386;2023-05-15T01:23:16;5.60;;;4.60;;
7917;SDS011;4004;42.624;23.386;2023-05-15T01:26:01;7.23;;;4.70;;
7917;SDS011;4004;42.624;23.386;2023-05-15T01:29:02;5.87;;;5.27;;
7917;SDS011;4004;42.624;23.386;2023-05-15T01:31:33;5.83;;;5.33;;
7917;SDS011;4004;42.624;23.386;2023-05-15T01:34:05;6.63;;;5.93;;
7917;SDS011;4004;42.624;23.386;2023-05-15T01:36:35;6.33;;;5.73;;
7917;SDS011;4004;42.624;23.386;2023-05-15T01:39:04;7.07;;;6.40;;
7917;SDS011;4004;42.624;23.386;2023-05-15T01:41:34;6.97;;;6.27;;
7917;SDS011;4004;42.624;23.386;2023-05-15T01:44:17;6.90;;;6.20;;
7917;SDS011;4004;42.624;23.386;2023-05-15T01:46:48;8.23;;;6.90;;
7917;SDS011;4004;42.624;23.386;2023-05-15T01:49:17;6.67;;;5.70;;
7917;SDS011;4004;42.624;23.386;2023-05-15T01:51:48;7.47;;;5.97;;
7917;SDS011;4004;42.624;23.386;2023-05-15T01:54:17;7.47;;;6.27;;
7917;SDS011;4004;42.624;23.386;2023-05-15T01:56:46;6.90;;;6.30;;
7917;SDS011;4004;42.624;23.386;2023-05-15T01:59:14;7.03;;;6.33;;
7917;SDS011;4004;42.624;23.386;2023-05-15T02:01:43;7.93;;;6.43;;
7917;SDS011;4004;42.624;23.386;2023-05-15T02:04:11;6.97;;;6.37;;
7917;SDS011;4004;42.624;23.386;2023-05-15T02:06:38;8.30;;;7.53;;
7917;SDS011;4004;42.624;23.386;2023-05-15T02:09:06;8.70;;;7.80;;
7917;SDS011;4004;42.624;23.386;2023-05-15T02:11:33;8.90;;;7.97;;
7917;SDS011;4004;42.624;23.386;2023-05-15T02:14:01;9.57;;;8.77;;
7917;SDS011;4004;42.624;23.386;2023-05-15T02:16:31;11.03;;;9.93;;
7917;SDS011;4004;42.624;23.386;2023-05-15T02:18:58;10.33;;;9.43;;
7917;SDS011;4004;42.624;23.386;2023-05-15T02:21:25;11.77;;;10.67;;
7917;SDS011;4004;42.624;23.386;2023-05-15T02:23:51;11.23;;;10.23;;
7917;SDS011;4004;42.624;23.386;2023-05-15T02:26:22;11.60;;;10.50;;
7917;SDS011;4004;42.624;23.386;2023-05-15T02:29:00;11.77;;;10.57;;
7917;SDS011;4004;42.624;23.386;2023-05-15T02:31:37;10.93;;;9.93;;
7917;SDS011;4004;42.624;23.386;2023-05-15T02:34:14;11.97;;;10.87;;
7917;SDS011;4004;42.624;23.386;2023-05-15T02:36:46;11.57;;;10.37;;
7917;SDS011;4004;42.624;23.386;2023-05-15T02:39:14;15.93;;;14.33;;
7917;SDS011;4004;42.624;23.386;2023-05-15T02:41:41;12.03;;;10.80;;
7917;SDS011;4004;42.624;23.386;2023-05-15T02:44:10;12.77;;;11.10;;
7917;SDS011;4004;42.624;23.386;2023-05-15T02:46:40;12.97;;;11.67;;
7917;SDS011;4004;42.624;23.386;2023-05-15T02:49:07;12.37;;;11.20;;
7917;SDS011;4004;42.624;23.386;2023-05-15T02:51:35;12.70;;;11.50;;
7917;SDS011;4004;42.624;23.386;2023-05-15T02:54:02;11.43;;;9.93;;
7917;SDS011;4004;42.624;23.386;2023-05-15T02:56:30;10.23;;;9.20;;
7917;SDS011;4004;42.624;23.386;2023-05-15T02:58:57;10.20;;;9.20;;
7917;SDS011;4004;42.624;23.386;2023-05-15T03:01:24;10.20;;;9.03;;
7917;SDS011;4004;42.624;23.386;2023-05-15T03:03:52;21.30;;;8.57;;
7917;SDS011;4004;42.624;23.386;2023-05-15T03:06:19;6.20;;;5.70;;
7917;SDS011;4004;42.624;23.386;2023-05-15T03:08:45;6.00;;;5.40;;
7917;SDS011;4004;42.624;23.386;2023-05-15T03:11:12;6.50;;;5.80;;
7917;SDS011;4004;42.624;23.386;2023-05-15T03:13:39;7.37;;;5.80;;
7917;SDS011;4004;42.624;23.386;2023-05-15T03:16:06;7.80;;;4.83;;
7917;SDS011;4004;42.624;23.386;2023-05-15T03:18:32;3.93;;;3.60;;
7917;SDS011;4004;42.624;23.386;2023-05-15T03:21:00;4.33;;;3.80;;
7917;SDS011;4004;42.624;23.386;2023-05-15T03:23:27;4.47;;;4.07;;
7917;SDS011;4004;42.624;23.386;2023-05-15T03:25:55;4.50;;;3.60;;
7917;SDS011;4004;42.624;23.386;2023-05-15T03:28:22;5.73;;;4.53;;
7917;SDS011;4004;42.624;23.386;2023-05-15T03:30:48;4.30;;;3.90;;
7917;SDS011;4004;42.624;23.386;2023-05-15T03:33:15;5.47;;;4.60;;
7917;SDS011;4004;42.624;23.386;2023-05-15T03:35:42;6.40;;;5.80;;
7917;SDS011;4004;42.624;23.386;2023-05-15T03:38:10;7.70;;;7.00;;
7917;SDS011;4004;42.624;23.386;2023-05-15T03:40:37;10.70;;;9.53;;
7917;SDS011;4004;42.624;23.386;2023-05-15T03:43:04;11.10;;;10.10;;
7917;SDS011;4004;42.624;23.386;2023-05-15T03:45:32;10.90;;;9.80;;
7917;SDS011;4004;42.624;23.386;2023-05-15T03:47:59;10.73;;;9.63;;
7917;SDS011;4004;42.624;23.386;2023-05-15T03:50:25;11.40;;;10.37;;
7917;SDS011;4004;42.624;23.386;2023-05-15T03:52:52;13.87;;;12.57;;
7917;SDS011;4004;42.624;23.386;2023-05-15T03:55:20;11.23;;;10.23;;
7917;SDS011;4004;42.624;23.386;2023-05-15T03:57:47;11.93;;;10.70;;
7917;SDS011;4004;42.624;23.386;2023-05-15T04:00:14;13.17;;;11.90;;
7917;SDS011;4004;42.624;23.386;2023-05-15T04:02:41;12.23;;;11.13;;
7917;SDS011;4004;42.624;23.386;2023-05-15T04:05:08;12.57;;;11.37;;
7917;SDS011;4004;42.624;23.386;2023-05-15T04:07:35;15.80;;;14.27;;
7917;SDS011;4004;42.624;23.386;2023-05-15T04:10:03;12.87;;;11.63;;
7917;SDS011;4004;42.624;23.386;2023-05-15T04:12:32;15.60;;;11.30;;
7917;SDS011;4004;42.624;23.386;2023-05-15T04:15:12;14.47;;;13.07;;
7917;SDS011;4004;42.624;23.386;2023-05-15T04:17:39;14.07;;;12.77;;
7917;SDS011;4004;42.624;23.386;2023-05-15T04:20:07;14.57;;;13.10;;
7917;SDS011;4004;42.624;23.386;2023-05-15T04:22:35;13.27;;;11.97;;
7917;SDS011;4004;42.624;23.386;2023-05-15T04:25:02;13.20;;;11.83;;
7917;SDS011;4004;42.624;23.386;2023-05-15T04:27:29;15.33;;;13.73;;
7917;SDS011;4004;42.624;23.386;2023-05-15T04:29:58;12.97;;;11.67;;
7917;SDS011;4004;42.624;23.386;2023-05-15T04:32:26;15.70;;;14.13;;
7917;SDS011;4004;42.624;23.386;2023-05-15T04:34:53;12.73;;;11.07;;
7917;SDS011;4004;42.624;23.386;2023-05-15T04:37:19;12.97;;;11.70;;
7917;SDS011;4004;42.624;23.386;2023-05-15T04:39:46;12.93;;;11.67;;
7917;SDS011;4004;42.624;23.386;2023-05-15T04:42:13;12.00;;;10.73;;
7917;SDS011;4004;42.624;23.386;2023-05-15T04:44:41;13.00;;;11.80;;
7917;SDS011;4004;42.624;23.386;2023-05-15T04:47:08;12.67;;;11.47;;
7917;SDS011;4004;42.624;23.386;2023-05-15T04:49:35;14.10;;;11.50;;
7917;SDS011;4004;42.624;23.386;2023-05-15T04:52:02;15.33;;;12.97;;
7917;SDS011;4004;42.624;23.386;2023-05-15T04:54:29;14.97;;;13.57;;
7917;SDS011;4004;42.624;23.386;2023-05-15T04:56:56;14.07;;;12.67;;
7917;SDS011;4004;42.624;23.386;2023-05-15T04:59:23;13.03;;;11.73;;
7917;SDS011;4004;42.624;23.386;2023-05-15T05:01:53;12.77;;;11.40;;
7917;SDS011;4004;42.624;23.386;2023-05-15T05:04:19;9.83;;;8.93;;
7917;SDS011;4004;42.624;23.386;2023-05-15T05:06:47;11.00;;;9.90;;
7917;SDS011;4004;42.624;23.386;2023-05-15T05:09:14;11.30;;;10.30;;
7917;SDS011;4004;42.624;23.386;2023-05-15T05:11:41;10.00;;;9.00;;
7917;SDS011;4004;42.624;23.386;2023-05-15T05:14:08;11.00;;;9.87;;
7917;SDS011;4004;42.624;23.386;2023-05-15T05:16:35;9.53;;;8.63;;
7917;SDS011;4004;42.624;23.386;2023-05-15T05:19:03;10.30;;;8.80;;
7917;SDS011;4004;42.624;23.386;2023-05-15T05:21:30;11.50;;;10.37;;
7917;SDS011;4004;42.624;23.386;2023-05-15T05:23:58;12.03;;;10.83;;
7917;SDS011;4004;42.624;23.386;2023-05-15T05:26:25;14.07;;;10.63;;
7917;SDS011;4004;42.624;23.386;2023-05-15T05:28:52;12.13;;;10.63;;
7917;SDS011;4004;42.624;23.386;2023-05-15T05:31:19;13.90;;;11.13;;
7917;SDS011;4004;42.624;23.386;2023-05-15T05:33:46;12.37;;;11.17;;
7917;SDS011;4004;42.624;23.386;2023-05-15T05:36:14;14.13;;;12.73;;
7917;SDS011;4004;42.624;23.386;2023-05-15T05:38:41;15.00;;;13.43;;
7917;SDS011;4004;42.624;23.386;2023-05-15T05:41:08;15.50;;;12.87;;
7917;SDS011;4004;42.624;23.386;2023-05-15T05:43:35;20.33;;;13.50;;
7917;SDS011;4004;42.624;23.386;2023-05-15T05:46:01;13.97;;;11.90;;
7917;SDS011;4004;42.624;23.386;2023-05-15T05:48:28;12.60;;;11.30;;
7917;SDS011;4004;42.624;23.386;2023-05-15T05:50:55;11.53;;;10.43;;
7917;SDS011;4004;42.624;23.386;2023-05-15T05:53:23;11.57;;;10.20;;
7917;SDS011;4004;42.624;23.386;2023-05-15T05:55:50;12.97;;;9.73;;
7917;SDS011;4004;42.624;23.386;2023-05-15T05:58:16;7.73;;;6.97;;
7917;SDS011;4004;42.624;23.386;2023-05-15T06:00:43;10.70;;;8.40;;
7917;SDS011;4004;42.624;23.386;2023-05-15T06:03:11;9.23;;;8.33;;
7917;SDS011;4004;42.624;23.386;2023-05-15T06:05:38;10.40;;;8.63;;
7917;SDS011;4004;42.624;23.386;2023-05-15T06:08:05;10.30;;;9.30;;
7917;SDS011;4004;42.624;23.386;2023-05-15T06:10:33;10.70;;;9.60;;
7917;SDS011;4004;42.624;23.386;2023-05-15T06:12:59;9.00;;;8.20;;
7917;SDS011;4004;42.624;23.386;2023-05-15T06:15:26;9.57;;;8.63;;
7917;SDS011;4004;42.624;23.386;2023-05-15T06:17:53;9.73;;;8.73;;
7917;SDS011;4004;42.624;23.386;2023-05-15T06:20:20;10.30;;;9.30;;
7917;SDS011;4004;42.624;23.386;2023-05-15T06:22:47;9.23;;;8.37;;
7917;SDS011;4004;42.624;23.386;2023-05-15T06:25:14;9.70;;;8.70;;
7917;SDS011;4004;42.624;23.386;2023-05-15T06:27:42;9.63;;;8.63;;
7917;SDS011;4004;42.624;23.386;2023-05-15T06:30:09;10.07;;;7.30;;
7917;SDS011;4004;42.624;23.386;2023-05-15T06:32:36;8.50;;;7.00;;
7917;SDS011;4004;42.624;23.386;2023-05-15T06:35:03;10.13;;;7.73;;
7917;SDS011;4004;42.624;23.386;2023-05-15T06:37:31;9.57;;;8.37;;
7917;SDS011;4004;42.624;23.386;2023-05-15T06:39:57;10.30;;;8.57;;
7917;SDS011;4004;42.624;23.386;2023-05-15T06:42:24;9.17;;;8.30;;
7917;SDS011;4004;42.624;23.386;2023-05-15T06:44:52;13.53;;;11.47;;
7917;SDS011;4004;42.624;23.386;2023-05-15T06:47:19;12.73;;;11.43;;
7917;SDS011;4004;42.624;23.386;2023-05-15T06:49:46;12.13;;;10.83;;
7917;SDS011;4004;42.624;23.386;2023-05-15T06:52:12;10.40;;;9.37;;
7917;SDS011;4004;42.624;23.386;2023-05-15T06:54:39;10.50;;;8.90;;
7917;SDS011;4004;42.624;23.386;2023-05-15T06:57:07;10.63;;;9.53;;
7917;SDS011;4004;42.624;23.386;2023-05-15T06:59:34;13.77;;;10.10;;
7917;SDS011;4004;42.624;23.386;2023-05-15T07:02:02;10.10;;;9.07;;
7917;SDS011;4004;42.624;23.386;2023-05-15T07:04:29;9.80;;;8.90;;
7917;SDS011;4004;42.624;23.386;2023-05-15T07:06:56;12.10;;;10.80;;
7917;SDS011;4004;42.624;23.386;2023-05-15T07:09:23;11.17;;;9.67;;
7917;SDS011;4004;42.624;23.386;2023-05-15T07:11:49;10.53;;;8.77;;
7917;SDS011;4004;42.624;23.386;2023-05-15T07:14:16;9.93;;;8.63;;
7917;SDS011;4004;42.624;23.386;2023-05-15T07:16:43;10.20;;;9.20;;
7917;SDS011;4004;42.624;23.386;2023-05-15T07:19:12;10.73;;;9.37;;
7917;SDS011;4004;42.624;23.386;2023-05-15T07:21:42;12.23;;;11.03;;
7917;SDS011;4004;42.624;23.386;2023-05-15T07:24:09;11.30;;;10.10;;
7917;SDS011;4004;42.624;23.386;2023-05-15T07:26:35;12.93;;;11.63;;
7917;SDS011;4004;42.624;23.386;2023-05-15T07:29:02;10.23;;;9.07;;
7917;SDS011;4004;42.624;23.386;2023-05-15T07:31:29;11.37;;;10.10;;
7917;SDS011;4004;42.624;23.386;2023-05-15T07:33:57;14.33;;;10.10;;
7917;SDS011;4004;42.624;23.386;2023-05-15T07:36:25;10.80;;;9.70;;
7917;SDS011;4004;42.624;23.386;2023-05-15T07:38:52;11.17;;;9.93;;
7917;SDS011;4004;42.624;23.386;2023-05-15T07:41:19;12.67;;;10.50;;
7917;SDS011;4004;42.624;23.386;2023-05-15T07:43:46;12.47;;;9.23;;
7917;SDS011;4004;42.624;23.386;2023-05-15T07:46:12;13.23;;;10.23;;
7917;SDS011;4004;42.624;23.386;2023-05-15T07:48:39;15.33;;;11.17;;
7917;SDS011;4004;42.624;23.386;2023-05-15T07:51:06;18.33;;;11.33;;
7917;SDS011;4004;42.624;23.386;2023-05-15T07:53:34;14.33;;;11.43;;
7917;SDS011;4004;42.624;23.386;2023-05-15T07:56:01;14.60;;;11.20;;
7917;SDS011;4004;42.624;23.386;2023-05-15T07:58:27;14.60;;;11.50;;
7917;SDS011;4004;42.624;23.386;2023-05-15T08:00:54;13.13;;;11.60;;
7917;SDS011;4004;42.624;23.386;2023-05-15T08:03:21;13.23;;;11.93;;
7917;SDS011;4004;42.624;23.386;2023-05-15T08:05:47;13.57;;;12.27;;
7917;SDS011;4004;42.624;23.386;2023-05-15T08:08:14;15.43;;;13.30;;
7917;SDS011;4004;42.624;23.386;2023-05-15T08:10:42;15.07;;;13.47;;
7917;SDS011;4004;42.624;23.386;2023-05-15T08:13:09;15.00;;;13.50;;
7917;SDS011;4004;42.624;23.386;2023-05-15T08:15:36;18.73;;;14.30;;
7917;SDS011;4004;42.624;23.386;2023-05-15T08:18:06;16.20;;;13.77;;
7917;SDS011;4004;42.624;23.386;2023-05-15T08:20:34;15.50;;;13.33;;
7917;SDS011;4004;42.624;23.386;2023-05-15T08:23:00;15.63;;;12.80;;
7917;SDS011;4004;42.624;23.386;2023-05-15T08:25:27;15.37;;;12.47;;
7917;SDS011;4004;42.624;23.386;2023-05-15T08:27:55;13.77;;;12.37;;
7917;SDS011;4004;42.624;23.386;2023-05-15T08:30:22;12.50;;;11.20;;
7917;SDS011;4004;42.624;23.386;2023-05-15T08:32:49;13.47;;;12.07;;
7917;SDS011;4004;42.624;23.386;2023-05-15T08:35:15;14.67;;;11.80;;
7917;SDS011;4004;42.624;23.386;2023-05-15T08:37:42;12.73;;;11.47;;
7917;SDS011;4004;42.624;23.386;2023-05-15T08:40:09;14.03;;;11.97;;
7917;SDS011;4004;42.624;23.386;2023-05-15T08:42:40;13.87;;;11.20;;
7917;SDS011;4004;42.624;23.386;2023-05-15T08:45:11;13.03;;;11.73;;
7917;SDS011;4004;42.624;23.386;2023-05-15T08:47:38;12.70;;;11.03;;
7917;SDS011;4004;42.624;23.386;2023-05-15T08:50:07;13.93;;;11.60;;
7917;SDS011;4004;42.624;23.386;2023-05-15T08:52:36;12.13;;;10.93;;
7917;SDS011;4004;42.624;23.386;2023-05-15T08:55:06;16.63;;;11.23;;
7917;SDS011;4004;42.624;23.386;2023-05-15T08:57:33;12.97;;;11.17;;
7917;SDS011;4004;42.624;23.386;2023-05-15T09:00:01;13.90;;;11.23;;
7917;SDS011;4004;42.624;23.386;2023-05-15T09:02:33;16.93;;;13.27;;
7917;SDS011;4004;42.624;23.386;2023-05-15T09:05:00;13.63;;;11.60;;
7917;SDS011;4004;42.624;23.386;2023-05-15T09:07:28;13.93;;;12.03;;
7917;SDS011;4004;42.624;23.386;2023-05-15T09:09:55;14.27;;;12.40;;
7917;SDS011;4004;42.624;23.386;2023-05-15T09:12:23;14.10;;;12.57;;
7917;SDS011;4004;42.624;23.386;2023-05-15T09:14:51;14.47;;;12.97;;
7917;SDS011;4004;42.624;23.386;2023-05-15T09:17:34;13.77;;;11.60;;
7917;SDS011;4004;42.624;23.386;2023-05-15T09:20:01;15.10;;;13.03;;
7917;SDS011;4004;42.624;23.386;2023-05-15T09:22:32;16.07;;;14.20;;
7917;SDS011;4004;42.624;23.386;2023-05-15T09:24:59;15.50;;;13.30;;
7917;SDS011;4004;42.624;23.386;2023-05-15T09:27:27;16.63;;;14.90;;
7917;SDS011;4004;42.624;23.386;2023-05-15T09:29:54;16.17;;;12.27;;
7917;SDS011;4004;42.624;23.386;2023-05-15T09:32:22;13.37;;;11.97;;
7917;SDS011;4004;42.624;23.386;2023-05-15T09:34:53;18.17;;;13.80;;
7917;SDS011;4004;42.624;23.386;2023-05-15T09:37:26;14.60;;;11.77;;
7917;SDS011;4004;42.624;23.386;2023-05-15T09:39:55;15.63;;;12.20;;
7917;SDS011;4004;42.624;23.386;2023-05-15T09:42:33;17.33;;;14.45;;
7917;SDS011;4004;42.624;23.386;2023-05-15T09:45:00;13.63;;;11.53;;
7917;SDS011;4004;42.624;23.386;2023-05-15T09:47:28;12.27;;;10.60;;
7917;SDS011;4004;42.624;23.386;2023-05-15T09:49:56;12.53;;;9.70;;
7917;SDS011;4004;42.624;23.386;2023-05-15T09:52:23;11.27;;;9.60;;
7917;SDS011;4004;42.624;23.386;2023-05-15T09:54:49;11.63;;;10.37;;
7917;SDS011;4004;42.624;23.386;2023-05-15T09:57:20;15.53;;;12.53;;
7917;SDS011;4004;42.624;23.386;2023-05-15T09:59:48;14.87;;;10.80;;
7917;SDS011;4004;42.624;23.386;2023-05-15T10:02:21;12.10;;;10.37;;
7917;SDS011;4004;42.624;23.386;2023-05-15T10:04:52;14.87;;;10.30;;
7917;SDS011;4004;42.624;23.386;2023-05-15T10:07:27;24.30;;;10.73;;
7917;SDS011;4004;42.624;23.386;2023-05-15T10:09:54;10.13;;;8.93;;
7917;SDS011;4004;42.624;23.386;2023-05-15T10:12:22;13.20;;;9.33;;
7917;SDS011;4004;42.624;23.386;2023-05-15T10:14:49;12.63;;;9.43;;
7917;SDS011;4004;42.624;23.386;2023-05-15T10:17:16;14.67;;;10.67;;
7917;SDS011;4004;42.624;23.386;2023-05-15T10:19:45;24.10;;;10.57;;
7917;SDS011;4004;42.624;23.386;2023-05-15T10:22:14;10.77;;;9.60;;
7917;SDS011;4004;42.624;23.386;2023-05-15T10:24:45;13.50;;;9.90;;
7917;SDS011;4004;42.624;23.386;2023-05-15T10:27:16;13.70;;;10.43;;
7917;SDS011;4004;42.624;23.386;2023-05-15T10:29:45;12.57;;;11.00;;
7917;SDS011;4004;42.624;23.386;2023-05-15T10:32:13;12.73;;;11.43;;
7917;SDS011;4004;42.624;23.386;2023-05-15T10:34:40;10.60;;;9.53;;
7917;SDS011;4004;42.624;23.386;2023-05-15T10:37:08;11.53;;;10.43;;
7917;SDS011;4004;42.624;23.386;2023-05-15T10:39:36;11.97;;;10.63;;
7917;SDS011;4004;42.624;23.386;2023-05-15T10:42:06;11.43;;;10.30;;
7917;SDS011;4004;42.624;23.386;2023-05-15T10:44:33;15.20;;;11.23;;
7917;SDS011;4004;42.624;23.386;2023-05-15T10:47:00;14.30;;;10.60;;
7917;SDS011;4004;42.624;23.386;2023-05-15T10:49:28;16.43;;;11.67;;
7917;SDS011;4004;42.624;23.386;2023-05-15T10:51:55;14.53;;;11.60;;
7917;SDS011;4004;42.624;23.386;2023-05-15T10:54:25;16.47;;;11.13;;
7917;SDS011;4004;42.624;23.386;2023-05-15T10:56:54;12.80;;;10.63;;
7917;SDS011;4004;42.624;23.386;2023-05-15T10:59:29;15.20;;;11.17;;
7917;SDS011;4004;42.624;23.386;2023-05-15T11:01:56;13.83;;;11.13;;
7917;SDS011;4004;42.624;23.386;2023-05-15T11:04:47;18.60;;;11.17;;
7917;SDS011;4004;42.624;23.386;2023-05-15T11:07:18;11.70;;;10.60;;
7917;SDS011;4004;42.624;23.386;2023-05-15T11:09:45;14.67;;;10.30;;
7917;SDS011;4004;42.624;23.386;2023-05-15T11:12:12;13.53;;;9.77;;
7917;SDS011;4004;42.624;23.386;2023-05-15T11:14:40;16.77;;;11.10;;
7917;SDS011;4004;42.624;23.386;2023-05-15T11:17:08;14.10;;;11.37;;
7917;SDS011;4004;42.624;23.386;2023-05-15T11:22:25;15.67;;;11.93;;
7917;SDS011;4004;42.624;23.386;2023-05-15T11:24:54;13.17;;;11.87;;
7917;SDS011;4004;42.624;23.386;2023-05-15T11:27:29;12.87;;;11.47;;
7917;SDS011;4004;42.624;23.386;2023-05-15T11:30:05;13.27;;;11.87;;
7917;SDS011;4004;42.624;23.386;2023-05-15T11:32:40;17.27;;;11.87;;
7917;SDS011;4004;42.624;23.386;2023-05-15T11:35:11;13.93;;;12.30;;
7917;SDS011;4004;42.624;23.386;2023-05-15T11:37:42;15.97;;;14.30;;
7917;SDS011;4004;42.624;23.386;2023-05-15T11:40:12;15.40;;;11.80;;
7917;SDS011;4004;42.624;23.386;2023-05-15T11:42:39;17.47;;;12.57;;
7917;SDS011;4004;42.624;23.386;2023-05-15T11:45:09;16.07;;;11.97;;
7917;SDS011;4004;42.624;23.386;2023-05-15T11:47:36;12.87;;;11.30;;
7917;SDS011;4004;42.624;23.386;2023-05-15T11:50:03;21.17;;;12.93;;
7917;SDS011;4004;42.624;23.386;2023-05-15T11:52:31;15.17;;;11.57;;
7917;SDS011;4004;42.624;23.386;2023-05-15T11:54:58;15.80;;;11.90;;
7917;SDS011;4004;42.624;23.386;2023-05-15T11:57:25;20.17;;;11.73;;
7917;SDS011;4004;42.624;23.386;2023-05-15T11:59:52;12.63;;;11.30;;
7917;SDS011;4004;42.624;23.386;2023-05-15T12:02:21;14.30;;;12.80;;
7917;SDS011;4004;42.624;23.386;2023-05-15T12:04:48;20.20;;;12.33;;
7917;SDS011;4004;42.624;23.386;2023-05-15T12:07:16;18.90;;;12.17;;
7917;SDS011;4004;42.624;23.386;2023-05-15T12:09:43;16.33;;;10.93;;
7917;SDS011;4004;42.624;23.386;2023-05-15T12:12:15;14.40;;;10.40;;
7917;SDS011;4004;42.624;23.386;2023-05-15T12:14:41;12.77;;;10.20;;
7917;SDS011;4004;42.624;23.386;2023-05-15T12:17:08;18.20;;;10.70;;
7917;SDS011;4004;42.624;23.386;2023-05-15T12:19:36;13.97;;;10.10;;
7917;SDS011;4004;42.624;23.386;2023-05-15T12:22:04;17.53;;;11.13;;
7917;SDS011;4004;42.624;23.386;2023-05-15T12:24:32;12.23;;;11.03;;
7917;SDS011;4004;42.624;23.386;2023-05-15T12:27:00;11.97;;;10.87;;
7917;SDS011;4004;42.624;23.386;2023-05-15T12:29:28;18.10;;;11.50;;
7917;SDS011;4004;42.624;23.386;2023-05-15T12:31:54;12.30;;;11.00;;
7917;SDS011;4004;42.624;23.386;2023-05-15T12:34:22;12.50;;;10.03;;
7917;SDS011;4004;42.624;23.386;2023-05-15T12:36:50;17.07;;;10.87;;
7917;SDS011;4004;42.624;23.386;2023-05-15T12:39:17;18.13;;;10.83;;
7917;SDS011;4004;42.624;23.386;2023-05-15T12:41:44;13.57;;;11.13;;
7917;SDS011;4004;42.624;23.386;2023-05-15T12:44:14;14.50;;;10.60;;
7917;SDS011;4004;42.624;23.386;2023-05-15T12:46:42;17.10;;;10.50;;
7917;SDS011;4004;42.624;23.386;2023-05-15T12:49:08;16.20;;;10.47;;
7917;SDS011;4004;42.624;23.386;2023-05-15T12:51:40;22.67;;;11.63;;
7917;SDS011;4004;42.624;23.386;2023-05-15T12:54:16;16.13;;;10.47;;
7917;SDS011;4004;42.624;23.386;2023-05-15T12:56:43;18.97;;;11.37;;
7917;SDS011;4004;42.624;23.386;2023-05-15T12:59:10;19.07;;;10.93;;
7917;SDS011;4004;42.624;23.386;2023-05-15T13:01:38;18.80;;;10.93;;
7917;SDS011;4004;42.624;23.386;2023-05-15T13:04:06;24.10;;;12.63;;
7917;SDS011;4004;42.624;23.386;2023-05-15T13:06:34;14.97;;;11.07;;
7917;SDS011;4004;42.624;23.386;2023-05-15T13:09:03;24.57;;;11.30;;
7917;SDS011;4004;42.624;23.386;2023-05-15T13:11:31;13.93;;;10.13;;
7917;SDS011;4004;42.624;23.386;2023-05-15T13:13:57;13.70;;;10.20;;
7917;SDS011;4004;42.624;23.386;2023-05-15T13:16:25;15.53;;;9.50;;
7917;SDS011;4004;42.624;23.386;2023-05-15T13:18:54;15.97;;;9.00;;
7917;SDS011;4004;42.624;23.386;2023-05-15T13:21:22;15.20;;;8.77;;
7917;SDS011;4004;42.624;23.386;2023-05-15T13:23:49;12.27;;;9.50;;
7917;SDS011;4004;42.624;23.386;2023-05-15T13:26:16;15.70;;;9.83;;
7917;SDS011;4004;42.624;23.386;2023-05-15T13:28:44;11.77;;;8.80;;
7917;SDS011;4004;42.624;23.386;2023-05-15T13:31:11;15.33;;;9.60;;
7917;SDS011;4004;42.624;23.386;2023-05-15T13:33:37;10.40;;;8.53;;
7917;SDS011;4004;42.624;23.386;2023-05-15T13:36:04;13.40;;;9.40;;
7917;SDS011;4004;42.624;23.386;2023-05-15T13:38:32;15.43;;;9.27;;
7917;SDS011;4004;42.624;23.386;2023-05-15T13:40:58;11.03;;;9.30;;
7917;SDS011;4004;42.624;23.386;2023-05-15T13:43:25;13.57;;;8.80;;
7917;SDS011;4004;42.624;23.386;2023-05-15T13:45:53;12.97;;;10.30;;
7917;SDS011;4004;42.624;23.386;2023-05-15T13:48:20;11.73;;;9.70;;
7917;SDS011;4004;42.624;23.386;2023-05-15T13:50:47;14.33;;;8.83;;
7917;SDS011;4004;42.624;23.386;2023-05-15T13:53:13;15.63;;;10.10;;
7917;SDS011;4004;42.624;23.386;2023-05-15T13:55:41;17.17;;;9.80;;
7917;SDS011;4004;42.624;23.386;2023-05-15T13:58:09;12.00;;;9.50;;
7917;SDS011;4004;42.624;23.386;2023-05-15T14:00:36;10.77;;;9.20;;
7917;SDS011;4004;42.624;23.386;2023-05-15T14:03:05;12.43;;;8.97;;
7917;SDS011;4004;42.624;23.386;2023-05-15T14:05:31;18.40;;;9.77;;
7917;SDS011;4004;42.624;23.386;2023-05-15T14:07:58;17.27;;;9.53;;
7917;SDS011;4004;42.624;23.386;2023-05-15T14:10:25;14.20;;;9.93;;
7917;SDS011;4004;42.624;23.386;2023-05-15T14:12:51;10.90;;;8.90;;
7917;SDS011;4004;42.624;23.386;2023-05-15T14:15:18;12.43;;;8.97;;
7917;SDS011;4004;42.624;23.386;2023-05-15T14:17:45;9.70;;;8.43;;
7917;SDS011;4004;42.624;23.386;2023-05-15T14:20:14;10.83;;;8.50;;
7917;SDS011;4004;42.624;23.386;2023-05-15T14:22:40;16.50;;;8.47;;
7917;SDS011;4004;42.624;23.386;2023-05-15T14:25:07;11.33;;;7.73;;
7917;SDS011;4004;42.624;23.386;2023-05-15T14:27:34;10.67;;;9.07;;
7917;SDS011;4004;42.624;23.386;2023-05-15T14:30:01;12.67;;;8.77;;
7917;SDS011;4004;42.624;23.386;2023-05-15T14:32:28;14.70;;;9.40;;
7917;SDS011;4004;42.624;23.386;2023-05-15T14:34:55;16.10;;;8.50;;
7917;SDS011;4004;42.624;23.386;2023-05-15T14:37:25;14.17;;;7.90;;
7917;SDS011;4004;42.624;23.386;2023-05-15T14:39:52;11.37;;;7.10;;
7917;SDS011;4004;42.624;23.386;2023-05-15T14:42:19;13.10;;;6.67;;
7917;SDS011;4004;42.624;23.386;2023-05-15T14:44:46;13.70;;;6.43;;
7917;SDS011;4004;42.624;23.386;2023-05-15T14:47:13;11.47;;;6.80;;
7917;SDS011;4004;42.624;23.386;2023-05-15T14:49:40;11.47;;;6.60;;
7917;SDS011;4004;42.624;23.386;2023-05-15T14:52:08;11.70;;;7.00;;